Saint Germain, Wisconsin
Current Conditions -  °F | °C
As of 5:55 PM on Saturday 22 Nov 2014 (Local Time) from KEGV Reporting Station
Overcast Overcast  
Wind Chill: 28°   Ceiling: 600
Heat Index: 32°   Visibility: 7mi
Dew Point: 32°   Wind: 5mph
Humidity: 99%   Direction: 210°SSW
Pressure: 29.69"   Gusts: NA
Location:  45.9°N, 89.49°W
Report Text: KEGV 222355Z AUTO 21004KT 7SM OVC006 00/00 A2969 RMK AO2 T00010000 10005 20001
Loading
Personal Weather Stations






























Interactive Weather Map New forecast layout! Learn more

10-Day Weather Forecast

Advertisements
Track Severe Weather on mobile